Archival Weather

Moundou

Moundou, Chad (FTTD)

Report from: Friday, April 19, 2024 8:00 AM WAT
Current time: Tuesday, May 21, 2024 6:27 PM WAT

Current weather – Weather history – Daily summaries
Weather forecast

Temperature30.0°C (86.0°F)
Heat index32.0°C (89.6°F)
Dew point20.0°C (68.0°F)
Winds 4 kts (2.1 m/s, 4.6 mph) Southwest (220°)
Clouds Sky clear
Altimeter29.85 in.Hg (1011 mB)
Relative humidity55 %
Density altitude2,112 ft. (644 m)
Remarks Ceiling and visibility OK
Flight conditions Visual Meteorological Conditions
Raw dataFTTD 190700Z 22004KT CAVOK 30/20 Q1011
An error has occurred. This application may no longer respond until reloaded. Reload 🗙